sensor_id;sensor_type;location;lat;lon;timestamp;P1;durP1;ratioP1;P2;durP2;ratioP2
27566;SDS011;15006;48.584;9.186;2022-08-21T00:01:00;2.10;;;2.00;;
27566;SDS011;15006;48.584;9.186;2022-08-21T00:03:36;2.22;;;2.00;;
27566;SDS011;15006;48.584;9.186;2022-08-21T00:06:07;2.20;;;2.08;;
27566;SDS011;15006;48.584;9.186;2022-08-21T00:08:45;2.40;;;1.80;;
27566;SDS011;15006;48.584;9.186;2022-08-21T00:11:23;2.55;;;2.35;;
27566;SDS011;15006;48.584;9.186;2022-08-21T00:13:54;2.15;;;2.05;;
27566;SDS011;15006;48.584;9.186;2022-08-21T00:16:23;2.00;;;1.90;;
27566;SDS011;15006;48.584;9.186;2022-08-21T00:18:49;5.03;;;1.92;;
27566;SDS011;15006;48.584;9.186;2022-08-21T00:21:15;4.18;;;1.88;;
27566;SDS011;15006;48.584;9.186;2022-08-21T00:23:42;2.00;;;1.90;;
27566;SDS011;15006;48.584;9.186;2022-08-21T00:26:08;2.28;;;2.08;;
27566;SDS011;15006;48.584;9.186;2022-08-21T00:28:35;3.05;;;2.85;;
27566;SDS011;15006;48.584;9.186;2022-08-21T00:31:01;2.20;;;2.10;;
27566;SDS011;15006;48.584;9.186;2022-08-21T00:33:29;2.60;;;2.50;;
27566;SDS011;15006;48.584;9.186;2022-08-21T00:35:56;4.28;;;2.30;;
27566;SDS011;15006;48.584;9.186;2022-08-21T00:38:22;2.20;;;2.10;;
27566;SDS011;15006;48.584;9.186;2022-08-21T00:40:54;2.45;;;2.30;;
27566;SDS011;15006;48.584;9.186;2022-08-21T00:43:28;2.30;;;1.90;;
27566;SDS011;15006;48.584;9.186;2022-08-21T00:45:57;3.85;;;2.25;;
27566;SDS011;15006;48.584;9.186;2022-08-21T00:48:24;2.55;;;2.42;;
27566;SDS011;15006;48.584;9.186;2022-08-21T00:51:07;4.50;;;2.10;;
27566;SDS011;15006;48.584;9.186;2022-08-21T00:53:49;2.15;;;2.05;;
27566;SDS011;15006;48.584;9.186;2022-08-21T00:56:21;5.53;;;2.08;;
27566;SDS011;15006;48.584;9.186;2022-08-21T00:58:49;2.97;;;2.58;;
27566;SDS011;15006;48.584;9.186;2022-08-21T01:01:18;2.15;;;2.05;;
27566;SDS011;15006;48.584;9.186;2022-08-21T01:03:47;3.58;;;2.63;;
27566;SDS011;15006;48.584;9.186;2022-08-21T01:06:15;2.30;;;2.20;;
27566;SDS011;15006;48.584;9.186;2022-08-21T01:08:43;3.10;;;1.92;;
27566;SDS011;15006;48.584;9.186;2022-08-21T01:11:09;4.60;;;2.40;;
27566;SDS011;15006;48.584;9.186;2022-08-21T01:13:36;2.22;;;2.00;;
27566;SDS011;15006;48.584;9.186;2022-08-21T01:16:04;3.03;;;2.40;;
27566;SDS011;15006;48.584;9.186;2022-08-21T01:18:34;2.50;;;2.40;;
27566;SDS011;15006;48.584;9.186;2022-08-21T01:23:36;2.90;;;2.15;;
27566;SDS011;15006;48.584;9.186;2022-08-21T01:26:04;2.70;;;2.47;;
27566;SDS011;15006;48.584;9.186;2022-08-21T01:28:33;2.60;;;2.33;;
27566;SDS011;15006;48.584;9.186;2022-08-21T01:31:05;2.20;;;2.10;;
27566;SDS011;15006;48.584;9.186;2022-08-21T01:33:33;2.30;;;2.20;;
27566;SDS011;15006;48.584;9.186;2022-08-21T01:36:00;2.10;;;2.00;;
27566;SDS011;15006;48.584;9.186;2022-08-21T01:38:26;4.43;;;2.03;;
27566;SDS011;15006;48.584;9.186;2022-08-21T01:40:52;2.50;;;1.90;;
27566;SDS011;15006;48.584;9.186;2022-08-21T01:43:18;2.42;;;2.22;;
27566;SDS011;15006;48.584;9.186;2022-08-21T01:45:44;2.15;;;2.05;;
27566;SDS011;15006;48.584;9.186;2022-08-21T01:48:10;3.00;;;1.95;;
27566;SDS011;15006;48.584;9.186;2022-08-21T01:50:36;1.90;;;1.80;;
27566;SDS011;15006;48.584;9.186;2022-08-21T01:53:02;2.38;;;2.28;;
27566;SDS011;15006;48.584;9.186;2022-08-21T01:55:29;2.67;;;2.50;;
27566;SDS011;15006;48.584;9.186;2022-08-21T01:57:56;2.45;;;2.20;;
27566;SDS011;15006;48.584;9.186;2022-08-21T02:00:23;2.50;;;2.40;;
27566;SDS011;15006;48.584;9.186;2022-08-21T02:02:50;3.35;;;3.15;;
27566;SDS011;15006;48.584;9.186;2022-08-21T02:05:16;2.63;;;2.53;;
27566;SDS011;15006;48.584;9.186;2022-08-21T02:07:44;2.70;;;2.60;;
27566;SDS011;15006;48.584;9.186;2022-08-21T02:10:17;2.50;;;2.40;;
27566;SDS011;15006;48.584;9.186;2022-08-21T02:12:47;2.70;;;2.60;;
27566;SDS011;15006;48.584;9.186;2022-08-21T02:15:15;2.50;;;2.40;;
27566;SDS011;15006;48.584;9.186;2022-08-21T02:17:42;3.10;;;2.90;;
27566;SDS011;15006;48.584;9.186;2022-08-21T02:20:18;2.63;;;2.42;;
27566;SDS011;15006;48.584;9.186;2022-08-21T02:22:49;3.17;;;2.40;;
27566;SDS011;15006;48.584;9.186;2022-08-21T02:25:16;2.40;;;2.30;;
27566;SDS011;15006;48.584;9.186;2022-08-21T02:27:44;2.80;;;2.50;;
27566;SDS011;15006;48.584;9.186;2022-08-21T02:30:23;3.03;;;2.80;;
27566;SDS011;15006;48.584;9.186;2022-08-21T02:32:55;2.75;;;2.55;;
27566;SDS011;15006;48.584;9.186;2022-08-21T02:35:21;2.63;;;2.53;;
27566;SDS011;15006;48.584;9.186;2022-08-21T02:38:00;2.58;;;2.45;;
27566;SDS011;15006;48.584;9.186;2022-08-21T02:40:32;2.40;;;2.30;;
27566;SDS011;15006;48.584;9.186;2022-08-21T02:43:02;5.20;;;2.50;;
27566;SDS011;15006;48.584;9.186;2022-08-21T02:45:29;2.47;;;2.38;;
27566;SDS011;15006;48.584;9.186;2022-08-21T02:48:01;2.88;;;2.20;;
27566;SDS011;15006;48.584;9.186;2022-08-21T02:50:32;4.03;;;2.60;;
27566;SDS011;15006;48.584;9.186;2022-08-21T02:53:12;5.00;;;3.08;;
27566;SDS011;15006;48.584;9.186;2022-08-21T02:55:41;3.05;;;2.85;;
27566;SDS011;15006;48.584;9.186;2022-08-21T02:58:10;3.75;;;3.08;;
27566;SDS011;15006;48.584;9.186;2022-08-21T03:00:37;3.88;;;3.50;;
27566;SDS011;15006;48.584;9.186;2022-08-21T03:03:04;3.40;;;3.10;;
27566;SDS011;15006;48.584;9.186;2022-08-21T03:05:31;2.55;;;2.30;;
27566;SDS011;15006;48.584;9.186;2022-08-21T03:08:00;2.97;;;2.53;;
27566;SDS011;15006;48.584;9.186;2022-08-21T03:10:28;2.80;;;2.70;;
27566;SDS011;15006;48.584;9.186;2022-08-21T03:12:56;2.67;;;2.58;;
27566;SDS011;15006;48.584;9.186;2022-08-21T03:15:22;2.75;;;2.55;;
27566;SDS011;15006;48.584;9.186;2022-08-21T03:17:49;3.35;;;3.15;;
27566;SDS011;15006;48.584;9.186;2022-08-21T03:20:17;3.50;;;3.20;;
27566;SDS011;15006;48.584;9.186;2022-08-21T03:22:49;2.75;;;2.65;;
27566;SDS011;15006;48.584;9.186;2022-08-21T03:25:16;2.95;;;2.85;;
27566;SDS011;15006;48.584;9.186;2022-08-21T03:27:43;2.75;;;2.65;;
27566;SDS011;15006;48.584;9.186;2022-08-21T03:30:09;3.50;;;2.80;;
27566;SDS011;15006;48.584;9.186;2022-08-21T03:32:36;2.58;;;2.47;;
27566;SDS011;15006;48.584;9.186;2022-08-21T03:35:02;3.10;;;2.90;;
27566;SDS011;15006;48.584;9.186;2022-08-21T03:37:30;2.72;;;2.63;;
27566;SDS011;15006;48.584;9.186;2022-08-21T03:39:57;3.47;;;2.83;;
27566;SDS011;15006;48.584;9.186;2022-08-21T03:42:23;3.33;;;3.22;;
27566;SDS011;15006;48.584;9.186;2022-08-21T03:44:49;2.80;;;2.70;;
27566;SDS011;15006;48.584;9.186;2022-08-21T03:47:16;3.00;;;2.85;;
27566;SDS011;15006;48.584;9.186;2022-08-21T03:49:43;2.70;;;2.50;;
27566;SDS011;15006;48.584;9.186;2022-08-21T03:52:09;3.33;;;3.20;;
27566;SDS011;15006;48.584;9.186;2022-08-21T03:54:35;2.88;;;2.78;;
27566;SDS011;15006;48.584;9.186;2022-08-21T03:57:01;2.97;;;2.88;;
27566;SDS011;15006;48.584;9.186;2022-08-21T03:59:27;3.13;;;2.90;;
27566;SDS011;15006;48.584;9.186;2022-08-21T04:01:55;3.25;;;3.15;;
27566;SDS011;15006;48.584;9.186;2022-08-21T04:04:24;3.13;;;3.00;;
27566;SDS011;15006;48.584;9.186;2022-08-21T04:06:52;3.40;;;3.10;;
27566;SDS011;15006;48.584;9.186;2022-08-21T04:09:19;3.05;;;2.95;;
27566;SDS011;15006;48.584;9.186;2022-08-21T04:11:45;3.50;;;3.20;;
27566;SDS011;15006;48.584;9.186;2022-08-21T04:14:13;3.25;;;3.05;;
27566;SDS011;15006;48.584;9.186;2022-08-21T04:16:40;3.40;;;3.20;;
27566;SDS011;15006;48.584;9.186;2022-08-21T04:19:08;3.28;;;3.08;;
27566;SDS011;15006;48.584;9.186;2022-08-21T04:21:36;3.85;;;2.70;;
27566;SDS011;15006;48.584;9.186;2022-08-21T04:24:03;3.13;;;2.95;;
27566;SDS011;15006;48.584;9.186;2022-08-21T04:26:30;3.15;;;2.95;;
27566;SDS011;15006;48.584;9.186;2022-08-21T04:28:57;3.03;;;2.90;;
27566;SDS011;15006;48.584;9.186;2022-08-21T04:31:23;3.30;;;3.20;;
27566;SDS011;15006;48.584;9.186;2022-08-21T04:33:50;3.05;;;2.95;;
27566;SDS011;15006;48.584;9.186;2022-08-21T04:36:16;3.78;;;3.40;;
27566;SDS011;15006;48.584;9.186;2022-08-21T04:38:43;3.70;;;3.40;;
27566;SDS011;15006;48.584;9.186;2022-08-21T04:41:09;3.00;;;2.90;;
27566;SDS011;15006;48.584;9.186;2022-08-21T04:43:35;3.20;;;3.10;;
27566;SDS011;15006;48.584;9.186;2022-08-21T04:46:02;3.40;;;3.17;;
27566;SDS011;15006;48.584;9.186;2022-08-21T04:48:28;3.35;;;3.15;;
27566;SDS011;15006;48.584;9.186;2022-08-21T04:50:56;3.33;;;3.05;;
27566;SDS011;15006;48.584;9.186;2022-08-21T04:53:33;3.05;;;2.75;;
27566;SDS011;15006;48.584;9.186;2022-08-21T04:56:10;3.45;;;3.30;;
27566;SDS011;15006;48.584;9.186;2022-08-21T04:58:49;4.07;;;3.88;;
27566;SDS011;15006;48.584;9.186;2022-08-21T05:01:19;3.90;;;3.70;;
27566;SDS011;15006;48.584;9.186;2022-08-21T05:03:49;4.25;;;3.55;;
27566;SDS011;15006;48.584;9.186;2022-08-21T05:06:20;4.05;;;3.70;;
27566;SDS011;15006;48.584;9.186;2022-08-21T05:08:47;3.55;;;3.45;;
27566;SDS011;15006;48.584;9.186;2022-08-21T05:11:17;3.63;;;3.42;;
27566;SDS011;15006;48.584;9.186;2022-08-21T05:13:45;3.45;;;3.25;;
27566;SDS011;15006;48.584;9.186;2022-08-21T05:16:11;3.78;;;3.67;;
27566;SDS011;15006;48.584;9.186;2022-08-21T05:18:37;4.47;;;4.10;;
27566;SDS011;15006;48.584;9.186;2022-08-21T05:21:03;4.28;;;4.00;;
27566;SDS011;15006;48.584;9.186;2022-08-21T05:23:30;4.38;;;4.07;;
27566;SDS011;15006;48.584;9.186;2022-08-21T05:25:56;4.20;;;4.00;;
27566;SDS011;15006;48.584;9.186;2022-08-21T05:28:22;3.97;;;3.78;;
27566;SDS011;15006;48.584;9.186;2022-08-21T05:30:48;4.00;;;3.78;;
27566;SDS011;15006;48.584;9.186;2022-08-21T05:33:14;4.28;;;4.00;;
27566;SDS011;15006;48.584;9.186;2022-08-21T05:35:40;3.70;;;3.60;;
27566;SDS011;15006;48.584;9.186;2022-08-21T05:38:06;4.00;;;3.80;;
27566;SDS011;15006;48.584;9.186;2022-08-21T05:40:32;4.65;;;4.32;;
27566;SDS011;15006;48.584;9.186;2022-08-21T05:42:59;4.20;;;3.90;;
27566;SDS011;15006;48.584;9.186;2022-08-21T05:45:27;3.78;;;3.58;;
27566;SDS011;15006;48.584;9.186;2022-08-21T05:47:56;3.90;;;3.60;;
27566;SDS011;15006;48.584;9.186;2022-08-21T05:50:22;4.38;;;4.07;;
27566;SDS011;15006;48.584;9.186;2022-08-21T05:52:48;4.68;;;4.32;;
27566;SDS011;15006;48.584;9.186;2022-08-21T05:55:14;6.47;;;4.03;;
27566;SDS011;15006;48.584;9.186;2022-08-21T05:57:40;4.57;;;4.28;;
27566;SDS011;15006;48.584;9.186;2022-08-21T06:00:07;4.30;;;4.00;;
27566;SDS011;15006;48.584;9.186;2022-08-21T06:02:37;4.90;;;4.50;;
27566;SDS011;15006;48.584;9.186;2022-08-21T06:05:04;4.00;;;3.70;;
27566;SDS011;15006;48.584;9.186;2022-08-21T06:07:31;4.40;;;4.20;;
27566;SDS011;15006;48.584;9.186;2022-08-21T06:09:57;4.28;;;3.97;;
27566;SDS011;15006;48.584;9.186;2022-08-21T06:12:22;3.90;;;3.70;;
27566;SDS011;15006;48.584;9.186;2022-08-21T06:14:49;3.70;;;3.45;;
27566;SDS011;15006;48.584;9.186;2022-08-21T06:17:17;3.53;;;3.40;;
27566;SDS011;15006;48.584;9.186;2022-08-21T06:19:44;5.30;;;3.25;;
27566;SDS011;15006;48.584;9.186;2022-08-21T06:22:09;4.00;;;3.70;;
27566;SDS011;15006;48.584;9.186;2022-08-21T06:24:35;3.75;;;3.30;;
27566;SDS011;15006;48.584;9.186;2022-08-21T06:27:05;3.35;;;3.15;;
27566;SDS011;15006;48.584;9.186;2022-08-21T06:29:33;3.28;;;3.08;;
27566;SDS011;15006;48.584;9.186;2022-08-21T06:31:59;3.53;;;3.28;;
27566;SDS011;15006;48.584;9.186;2022-08-21T06:34:26;3.33;;;3.13;;
27566;SDS011;15006;48.584;9.186;2022-08-21T06:36:52;3.13;;;2.97;;
27566;SDS011;15006;48.584;9.186;2022-08-21T06:39:18;3.83;;;2.92;;
27566;SDS011;15006;48.584;9.186;2022-08-21T06:41:44;3.40;;;3.20;;
27566;SDS011;15006;48.584;9.186;2022-08-21T06:44:11;3.13;;;2.58;;
27566;SDS011;15006;48.584;9.186;2022-08-21T06:46:37;7.57;;;2.70;;
27566;SDS011;15006;48.584;9.186;2022-08-21T06:49:03;3.05;;;2.80;;
27566;SDS011;15006;48.584;9.186;2022-08-21T06:51:29;2.60;;;2.30;;
27566;SDS011;15006;48.584;9.186;2022-08-21T06:53:55;2.72;;;2.53;;
27566;SDS011;15006;48.584;9.186;2022-08-21T06:56:22;5.72;;;2.55;;
27566;SDS011;15006;48.584;9.186;2022-08-21T06:58:48;3.67;;;2.30;;
27566;SDS011;15006;48.584;9.186;2022-08-21T07:01:14;3.08;;;2.88;;
27566;SDS011;15006;48.584;9.186;2022-08-21T07:03:41;2.75;;;2.55;;
27566;SDS011;15006;48.584;9.186;2022-08-21T07:06:09;2.25;;;2.15;;
27566;SDS011;15006;48.584;9.186;2022-08-21T07:08:36;2.30;;;2.20;;
27566;SDS011;15006;48.584;9.186;2022-08-21T07:11:04;2.65;;;2.17;;
27566;SDS011;15006;48.584;9.186;2022-08-21T07:13:38;8.23;;;2.80;;
27566;SDS011;15006;48.584;9.186;2022-08-21T07:16:04;2.08;;;1.98;;
27566;SDS011;15006;48.584;9.186;2022-08-21T07:18:31;2.10;;;1.90;;
27566;SDS011;15006;48.584;9.186;2022-08-21T07:20:57;2.00;;;1.90;;
27566;SDS011;15006;48.584;9.186;2022-08-21T07:23:34;3.20;;;1.98;;
27566;SDS011;15006;48.584;9.186;2022-08-21T07:26:04;2.25;;;2.08;;
27566;SDS011;15006;48.584;9.186;2022-08-21T07:28:31;2.42;;;2.00;;
27566;SDS011;15006;48.584;9.186;2022-08-21T07:30:59;2.38;;;1.98;;
27566;SDS011;15006;48.584;9.186;2022-08-21T07:33:26;2.10;;;1.83;;
27566;SDS011;15006;48.584;9.186;2022-08-21T07:35:55;1.80;;;1.70;;
27566;SDS011;15006;48.584;9.186;2022-08-21T07:38:22;3.17;;;1.67;;
27566;SDS011;15006;48.584;9.186;2022-08-21T07:40:49;1.52;;;1.50;;
27566;SDS011;15006;48.584;9.186;2022-08-21T07:43:18;1.60;;;1.50;;
27566;SDS011;15006;48.584;9.186;2022-08-21T07:45:44;1.45;;;1.35;;
27566;SDS011;15006;48.584;9.186;2022-08-21T07:48:11;2.45;;;1.27;;
27566;SDS011;15006;48.584;9.186;2022-08-21T07:50:37;2.50;;;1.70;;
27566;SDS011;15006;48.584;9.186;2022-08-21T07:53:04;2.58;;;2.20;;
27566;SDS011;15006;48.584;9.186;2022-08-21T07:55:30;2.25;;;2.00;;
27566;SDS011;15006;48.584;9.186;2022-08-21T07:57:56;2.20;;;2.00;;
27566;SDS011;15006;48.584;9.186;2022-08-21T08:00:23;2.50;;;2.30;;
27566;SDS011;15006;48.584;9.186;2022-08-21T08:02:51;2.10;;;1.98;;
27566;SDS011;15006;48.584;9.186;2022-08-21T08:05:20;3.17;;;1.90;;
27566;SDS011;15006;48.584;9.186;2022-08-21T08:07:53;1.80;;;1.70;;
27566;SDS011;15006;48.584;9.186;2022-08-21T08:10:20;3.72;;;1.58;;
27566;SDS011;15006;48.584;9.186;2022-08-21T08:12:48;2.97;;;1.83;;
27566;SDS011;15006;48.584;9.186;2022-08-21T08:15:17;2.22;;;2.03;;
27566;SDS011;15006;48.584;9.186;2022-08-21T08:17:47;2.00;;;1.90;;
27566;SDS011;15006;48.584;9.186;2022-08-21T08:20:15;1.90;;;1.80;;
27566;SDS011;15006;48.584;9.186;2022-08-21T08:22:43;2.00;;;1.90;;
27566;SDS011;15006;48.584;9.186;2022-08-21T08:25:11;2.75;;;2.00;;
27566;SDS011;15006;48.584;9.186;2022-08-21T08:27:38;1.95;;;1.70;;
27566;SDS011;15006;48.584;9.186;2022-08-21T08:30:05;2.33;;;1.52;;
27566;SDS011;15006;48.584;9.186;2022-08-21T08:32:34;2.03;;;1.80;;
27566;SDS011;15006;48.584;9.186;2022-08-21T08:35:00;4.65;;;1.85;;
27566;SDS011;15006;48.584;9.186;2022-08-21T08:37:26;2.17;;;1.90;;
27566;SDS011;15006;48.584;9.186;2022-08-21T08:39:52;3.85;;;1.88;;
27566;SDS011;15006;48.584;9.186;2022-08-21T08:42:25;2.13;;;1.77;;
27566;SDS011;15006;48.584;9.186;2022-08-21T08:44:57;4.72;;;1.60;;
27566;SDS011;15006;48.584;9.186;2022-08-21T08:47:39;2.25;;;1.75;;
27566;SDS011;15006;48.584;9.186;2022-08-21T08:50:17;3.40;;;2.22;;
27566;SDS011;15006;48.584;9.186;2022-08-21T08:55:37;2.00;;;1.90;;
27566;SDS011;15006;48.584;9.186;2022-08-21T08:58:41;2.28;;;1.92;;
27566;SDS011;15006;48.584;9.186;2022-08-21T09:01:12;3.95;;;1.52;;
27566;SDS011;15006;48.584;9.186;2022-08-21T09:03:43;2.63;;;2.00;;
27566;SDS011;15006;48.584;9.186;2022-08-21T09:11:57;2.13;;;1.83;;
27566;SDS011;15006;48.584;9.186;2022-08-21T09:26:07;3.90;;;1.95;;
27566;SDS011;15006;48.584;9.186;2022-08-21T09:28:40;2.42;;;2.10;;
27566;SDS011;15006;48.584;9.186;2022-08-21T09:31:25;5.38;;;2.00;;
27566;SDS011;15006;48.584;9.186;2022-08-21T09:34:01;3.45;;;2.00;;
27566;SDS011;15006;48.584;9.186;2022-08-21T09:36:50;2.67;;;1.88;;
27566;SDS011;15006;48.584;9.186;2022-08-21T09:39:24;3.90;;;1.73;;
27566;SDS011;15006;48.584;9.186;2022-08-21T09:41:58;4.90;;;2.17;;
27566;SDS011;15006;48.584;9.186;2022-08-21T09:44:29;2.08;;;1.83;;
27566;SDS011;15006;48.584;9.186;2022-08-21T09:47:01;4.25;;;1.60;;
27566;SDS011;15006;48.584;9.186;2022-08-21T09:49:37;3.92;;;2.10;;
27566;SDS011;15006;48.584;9.186;2022-08-21T09:52:17;1.90;;;1.80;;
27566;SDS011;15006;48.584;9.186;2022-08-21T09:54:52;2.28;;;2.08;;
27566;SDS011;15006;48.584;9.186;2022-08-21T09:57:27;3.00;;;1.92;;
27566;SDS011;15006;48.584;9.186;2022-08-21T10:00:10;3.60;;;1.75;;
27566;SDS011;15006;48.584;9.186;2022-08-21T10:03:07;3.83;;;2.40;;
27566;SDS011;15006;48.584;9.186;2022-08-21T10:05:52;3.25;;;2.00;;
27566;SDS011;15006;48.584;9.186;2022-08-21T10:08:34;4.13;;;2.15;;
27566;SDS011;15006;48.584;9.186;2022-08-21T10:11:08;2.67;;;1.70;;
27566;SDS011;15006;48.584;9.186;2022-08-21T10:22:58;3.05;;;1.95;;
27566;SDS011;15006;48.584;9.186;2022-08-21T10:28:51;1.40;;;1.30;;
27566;SDS011;15006;48.584;9.186;2022-08-21T10:40:10;2.13;;;1.90;;
27566;SDS011;15006;48.584;9.186;2022-08-21T10:43:17;2.08;;;1.58;;
27566;SDS011;15006;48.584;9.186;2022-08-21T10:46:00;3.15;;;1.65;;
27566;SDS011;15006;48.584;9.186;2022-08-21T10:48:50;2.85;;;1.95;;
27566;SDS011;15006;48.584;9.186;2022-08-21T10:54:26;3.58;;;1.95;;
27566;SDS011;15006;48.584;9.186;2022-08-21T10:59:55;4.03;;;1.65;;
27566;SDS011;15006;48.584;9.186;2022-08-21T11:02:32;2.15;;;1.83;;
27566;SDS011;15006;48.584;9.186;2022-08-21T11:05:06;1.95;;;1.60;;
27566;SDS011;15006;48.584;9.186;2022-08-21T11:07:43;1.98;;;1.70;;
27566;SDS011;15006;48.584;9.186;2022-08-21T11:10:26;2.13;;;1.92;;
27566;SDS011;15006;48.584;9.186;2022-08-21T11:13:38;2.10;;;1.85;;
27566;SDS011;15006;48.584;9.186;2022-08-21T11:19:21;2.67;;;1.85;;
27566;SDS011;15006;48.584;9.186;2022-08-21T11:27:28;1.70;;;1.60;;
27566;SDS011;15006;48.584;9.186;2022-08-21T11:30:10;1.25;;;1.15;;
27566;SDS011;15006;48.584;9.186;2022-08-21T11:35:51;1.40;;;1.30;;
27566;SDS011;15006;48.584;9.186;2022-08-21T11:38:49;2.05;;;1.50;;
27566;SDS011;15006;48.584;9.186;2022-08-21T11:44:47;1.42;;;1.25;;
27566;SDS011;15006;48.584;9.186;2022-08-21T11:52:45;3.25;;;1.42;;
27566;SDS011;15006;48.584;9.186;2022-08-21T11:55:23;1.70;;;1.60;;
27566;SDS011;15006;48.584;9.186;2022-08-21T12:00:56;1.63;;;1.20;;
27566;SDS011;15006;48.584;9.186;2022-08-21T12:04:21;1.35;;;1.23;;
27566;SDS011;15006;48.584;9.186;2022-08-21T12:06:30;1.48;;;1.17;;
27566;SDS011;15006;48.584;9.186;2022-08-21T12:09:04;1.55;;;1.20;;
27566;SDS011;15006;48.584;9.186;2022-08-21T12:11:48;1.55;;;1.40;;
27566;SDS011;15006;48.584;9.186;2022-08-21T12:14:43;2.35;;;1.27;;
27566;SDS011;15006;48.584;9.186;2022-08-21T12:17:23;3.80;;;1.35;;
27566;SDS011;15006;48.584;9.186;2022-08-21T12:20:16;1.80;;;1.70;;
27566;SDS011;15006;48.584;9.186;2022-08-21T12:22:52;1.90;;;1.30;;
27566;SDS011;15006;48.584;9.186;2022-08-21T12:25:40;1.10;;;1.00;;
27566;SDS011;15006;48.584;9.186;2022-08-21T12:28:12;0.90;;;0.90;;
27566;SDS011;15006;48.584;9.186;2022-08-21T12:30:42;1.33;;;1.23;;
27566;SDS011;15006;48.584;9.186;2022-08-21T12:36:13;2.70;;;1.45;;
27566;SDS011;15006;48.584;9.186;2022-08-21T12:38:51;1.40;;;1.30;;
27566;SDS011;15006;48.584;9.186;2022-08-21T12:41:33;3.05;;;1.83;;
27566;SDS011;15006;48.584;9.186;2022-08-21T12:44:13;1.92;;;1.25;;
27566;SDS011;15006;48.584;9.186;2022-08-21T12:46:56;1.20;;;1.17;;
27566;SDS011;15006;48.584;9.186;2022-08-21T12:49:35;1.17;;;1.08;;
27566;SDS011;15006;48.584;9.186;2022-08-21T12:52:34;1.00;;;1.00;;
27566;SDS011;15006;48.584;9.186;2022-08-21T12:55:10;2.85;;;1.00;;
27566;SDS011;15006;48.584;9.186;2022-08-21T12:57:41;1.48;;;1.38;;
27566;SDS011;15006;48.584;9.186;2022-08-21T13:00:09;1.38;;;1.23;;
27566;SDS011;15006;48.584;9.186;2022-08-21T13:02:41;1.33;;;1.10;;
27566;SDS011;15006;48.584;9.186;2022-08-21T13:05:19;1.15;;;1.05;;
27566;SDS011;15006;48.584;9.186;2022-08-21T13:08:03;1.33;;;1.23;;
27566;SDS011;15006;48.584;9.186;2022-08-21T13:10:32;1.48;;;1.35;;
27566;SDS011;15006;48.584;9.186;2022-08-21T13:13:19;2.17;;;1.30;;
27566;SDS011;15006;48.584;9.186;2022-08-21T13:16:08;1.50;;;1.00;;
27566;SDS011;15006;48.584;9.186;2022-08-21T13:18:52;1.27;;;1.20;;
27566;SDS011;15006;48.584;9.186;2022-08-21T13:21:30;1.10;;;1.00;;
27566;SDS011;15006;48.584;9.186;2022-08-21T13:24:10;1.48;;;1.38;;
27566;SDS011;15006;48.584;9.186;2022-08-21T13:26:58;1.17;;;1.08;;
27566;SDS011;15006;48.584;9.186;2022-08-21T13:29:29;0.77;;;0.77;;
27566;SDS011;15006;48.584;9.186;2022-08-21T13:32:01;1.77;;;1.10;;
27566;SDS011;15006;48.584;9.186;2022-08-21T13:34:36;1.23;;;1.13;;
27566;SDS011;15006;48.584;9.186;2022-08-21T13:37:07;1.58;;;1.10;;
27566;SDS011;15006;48.584;9.186;2022-08-21T13:39:34;1.45;;;1.10;;
27566;SDS011;15006;48.584;9.186;2022-08-21T13:42:01;1.25;;;1.15;;
27566;SDS011;15006;48.584;9.186;2022-08-21T13:47:06;1.13;;;1.02;;
27566;SDS011;15006;48.584;9.186;2022-08-21T13:49:36;1.25;;;1.15;;
27566;SDS011;15006;48.584;9.186;2022-08-21T13:52:16;1.30;;;1.20;;
27566;SDS011;15006;48.584;9.186;2022-08-21T13:55:19;1.15;;;1.10;;
27566;SDS011;15006;48.584;9.186;2022-08-21T13:57:41;1.08;;;0.98;;
27566;SDS011;15006;48.584;9.186;2022-08-21T14:02:47;1.52;;;1.17;;
27566;SDS011;15006;48.584;9.186;2022-08-21T14:05:36;1.30;;;1.20;;
27566;SDS011;15006;48.584;9.186;2022-08-21T14:08:14;1.38;;;1.23;;
27566;SDS011;15006;48.584;9.186;2022-08-21T14:10:52;1.65;;;1.25;;
27566;SDS011;15006;48.584;9.186;2022-08-21T14:13:27;1.55;;;1.15;;
27566;SDS011;15006;48.584;9.186;2022-08-21T14:16:20;7.25;;;1.20;;
27566;SDS011;15006;48.584;9.186;2022-08-21T14:18:52;1.00;;;1.00;;
27566;SDS011;15006;48.584;9.186;2022-08-21T14:21:41;1.17;;;0.90;;
27566;SDS011;15006;48.584;9.186;2022-08-21T14:24:10;1.33;;;1.23;;
27566;SDS011;15006;48.584;9.186;2022-08-21T14:26:50;1.75;;;1.30;;
27566;SDS011;15006;48.584;9.186;2022-08-21T14:29:21;1.20;;;1.10;;
27566;SDS011;15006;48.584;9.186;2022-08-21T14:31:54;1.60;;;1.20;;
27566;SDS011;15006;48.584;9.186;2022-08-21T14:34:24;2.25;;;0.95;;
27566;SDS011;15006;48.584;9.186;2022-08-21T14:36:53;1.17;;;1.08;;
27566;SDS011;15006;48.584;9.186;2022-08-21T14:39:21;1.95;;;1.27;;
27566;SDS011;15006;48.584;9.186;2022-08-21T14:41:48;1.30;;;1.20;;
27566;SDS011;15006;48.584;9.186;2022-08-21T14:44:15;1.00;;;0.90;;
27566;SDS011;15006;48.584;9.186;2022-08-21T14:46:43;2.53;;;1.02;;
27566;SDS011;15006;48.584;9.186;2022-08-21T14:49:10;1.42;;;1.10;;
27566;SDS011;15006;48.584;9.186;2022-08-21T14:51:37;1.38;;;1.05;;
27566;SDS011;15006;48.584;9.186;2022-08-21T14:54:04;1.83;;;1.35;;
27566;SDS011;15006;48.584;9.186;2022-08-21T14:56:32;1.13;;;1.13;;
27566;SDS011;15006;48.584;9.186;2022-08-21T14:59:02;1.30;;;1.10;;
27566;SDS011;15006;48.584;9.186;2022-08-21T15:01:34;2.50;;;1.35;;
27566;SDS011;15006;48.584;9.186;2022-08-21T15:04:02;1.40;;;1.30;;
27566;SDS011;15006;48.584;9.186;2022-08-21T15:06:30;1.00;;;1.00;;
27566;SDS011;15006;48.584;9.186;2022-08-21T15:08:56;1.00;;;1.00;;
27566;SDS011;15006;48.584;9.186;2022-08-21T15:11:23;1.13;;;0.93;;
27566;SDS011;15006;48.584;9.186;2022-08-21T15:13:53;2.20;;;1.08;;
27566;SDS011;15006;48.584;9.186;2022-08-21T15:16:23;1.90;;;0.88;;
27566;SDS011;15006;48.584;9.186;2022-08-21T15:18:49;1.48;;;1.10;;
27566;SDS011;15006;48.584;9.186;2022-08-21T15:21:15;1.45;;;1.35;;
27566;SDS011;15006;48.584;9.186;2022-08-21T15:23:41;1.50;;;1.30;;
27566;SDS011;15006;48.584;9.186;2022-08-21T15:26:08;1.27;;;1.08;;
27566;SDS011;15006;48.584;9.186;2022-08-21T15:28:34;1.35;;;1.25;;
27566;SDS011;15006;48.584;9.186;2022-08-21T15:31:02;1.40;;;1.30;;
27566;SDS011;15006;48.584;9.186;2022-08-21T15:33:28;2.90;;;1.27;;
27566;SDS011;15006;48.584;9.186;2022-08-21T15:35:54;2.05;;;1.10;;
27566;SDS011;15006;48.584;9.186;2022-08-21T15:38:20;1.67;;;1.13;;
27566;SDS011;15006;48.584;9.186;2022-08-21T15:40:46;1.10;;;1.10;;
27566;SDS011;15006;48.584;9.186;2022-08-21T15:45:53;1.98;;;1.30;;
27566;SDS011;15006;48.584;9.186;2022-08-21T15:48:19;1.20;;;1.10;;
27566;SDS011;15006;48.584;9.186;2022-08-21T15:50:45;2.05;;;1.30;;
27566;SDS011;15006;48.584;9.186;2022-08-21T15:53:11;1.45;;;1.35;;
27566;SDS011;15006;48.584;9.186;2022-08-21T15:55:38;1.20;;;1.10;;
27566;SDS011;15006;48.584;9.186;2022-08-21T15:58:04;2.22;;;1.30;;
27566;SDS011;15006;48.584;9.186;2022-08-21T16:00:32;1.25;;;1.15;;
27566;SDS011;15006;48.584;9.186;2022-08-21T16:03:00;10.45;;;1.38;;
27566;SDS011;15006;48.584;9.186;2022-08-21T16:07:57;1.98;;;1.30;;
27566;SDS011;15006;48.584;9.186;2022-08-21T16:10:23;1.15;;;1.08;;
27566;SDS011;15006;48.584;9.186;2022-08-21T16:12:53;1.35;;;1.25;;
27566;SDS011;15006;48.584;9.186;2022-08-21T16:15:23;2.63;;;1.20;;
27566;SDS011;15006;48.584;9.186;2022-08-21T16:17:51;1.40;;;1.23;;
27566;SDS011;15006;48.584;9.186;2022-08-21T16:20:21;3.22;;;1.70;;
27566;SDS011;15006;48.584;9.186;2022-08-21T16:22:51;1.30;;;1.20;;
27566;SDS011;15006;48.584;9.186;2022-08-21T16:25:21;1.60;;;1.50;;
27566;SDS011;15006;48.584;9.186;2022-08-21T16:27:50;1.67;;;1.27;;
27566;SDS011;15006;48.584;9.186;2022-08-21T16:30:20;2.08;;;1.60;;
27566;SDS011;15006;48.584;9.186;2022-08-21T16:32:46;1.60;;;1.50;;
27566;SDS011;15006;48.584;9.186;2022-08-21T16:35:14;1.50;;;1.40;;
27566;SDS011;15006;48.584;9.186;2022-08-21T16:37:43;2.20;;;1.58;;